createdAt,value
2019-06-20T00:02:06.015Z,19.03
2019-06-20T00:04:37.538Z,19.02
2019-06-20T00:07:09.073Z,19.21
2019-06-20T00:09:40.562Z,19.29
2019-06-20T00:12:14.476Z,19.17
2019-06-20T00:14:46.229Z,19.26
2019-06-20T00:17:17.739Z,19.31
2019-06-20T00:19:49.115Z,19.40
2019-06-20T00:22:20.823Z,19.41
2019-06-20T00:24:52.813Z,19.42
2019-06-20T00:27:27.560Z,19.46
2019-06-20T00:29:59.197Z,19.43
2019-06-20T00:32:30.829Z,19.52
2019-06-20T00:35:02.432Z,19.62
2019-06-20T00:37:33.988Z,19.70
2019-06-20T00:40:06.419Z,19.66
2019-06-20T00:42:38.146Z,19.61
2019-06-20T00:45:12.515Z,19.58
2019-06-20T00:47:43.941Z,19.34
2019-06-20T00:50:16.138Z,19.07
2019-06-20T00:52:47.651Z,19.19
2019-06-20T00:55:19.222Z,19.22
2019-06-20T00:57:50.709Z,19.41
2019-06-20T01:00:25.804Z,19.42
2019-06-20T01:02:57.283Z,19.47
2019-06-20T01:05:31.187Z,19.52
2019-06-20T01:08:02.739Z,19.60
2019-06-20T01:10:34.300Z,19.62
2019-06-20T01:13:05.959Z,19.51
2019-06-20T01:15:37.501Z,19.63
2019-06-20T01:18:09.366Z,19.70
2019-06-20T01:20:40.989Z,19.69
2019-06-20T01:23:12.567Z,19.64
2019-06-20T01:25:45.454Z,19.60
2019-06-20T01:28:17.273Z,19.63
2019-06-20T01:30:48.965Z,19.59
2019-06-20T01:33:20.431Z,19.40
2019-06-20T01:35:51.988Z,19.14
2019-06-20T01:38:23.851Z,19.12
2019-06-20T01:40:58.263Z,18.99
2019-06-20T01:43:30.091Z,19.13
2019-06-20T01:46:01.661Z,19.05
2019-06-20T01:48:33.161Z,18.87
2019-06-20T01:51:06.343Z,18.89
2019-06-20T01:53:37.853Z,18.69
2019-06-20T01:56:09.511Z,18.64
2019-06-20T01:58:41.007Z,18.64
2019-06-20T02:01:12.457Z,18.53
2019-06-20T02:03:44.522Z,18.62
2019-06-20T02:06:16.422Z,18.62
2019-06-20T02:08:47.907Z,18.71
2019-06-20T02:11:22.051Z,18.60
2019-06-20T02:14:06.368Z,18.44
2019-06-20T02:16:26.806Z,18.35
2019-06-20T02:18:58.437Z,18.25
2019-06-20T02:21:30.179Z,18.39
2019-06-20T02:24:01.833Z,18.31
2019-06-20T02:26:33.886Z,18.38
2019-06-20T02:29:05.471Z,18.36
2019-06-20T02:31:37.012Z,18.37
2019-06-20T02:34:08.686Z,18.25
2019-06-20T02:36:40.343Z,18.33
2019-06-20T02:39:11.863Z,18.32
2019-06-20T02:41:43.523Z,18.14
2019-06-20T02:44:29.401Z,18.09
2019-06-20T02:46:48.496Z,18.15
2019-06-20T02:49:23.119Z,18.07
2019-06-20T02:51:55.498Z,17.92
2019-06-20T02:54:27.014Z,17.94
2019-06-20T02:56:59.306Z,17.76
2019-06-20T02:59:30.900Z,17.89
2019-06-20T03:02:02.629Z,17.85
2019-06-20T03:04:34.239Z,17.80
2019-06-20T03:07:05.809Z,17.84
2019-06-20T03:09:38.505Z,17.73
2019-06-20T03:12:10.379Z,17.71
2019-06-20T03:14:45.728Z,17.69
2019-06-20T03:17:15.640Z,17.80
2019-06-20T03:19:47.742Z,17.78
2019-06-20T03:22:19.686Z,17.73
2019-06-20T03:24:51.165Z,17.64
2019-06-20T03:27:25.191Z,17.62
2019-06-20T03:29:59.757Z,17.61
2019-06-20T03:32:32.733Z,17.70
2019-06-20T03:35:04.504Z,17.85
2019-06-20T03:37:36.225Z,17.72
2019-06-20T03:40:08.063Z,17.76
2019-06-20T03:42:39.617Z,17.67
2019-06-20T03:45:11.751Z,17.55
2019-06-20T03:47:43.300Z,17.72
2019-06-20T03:50:15.277Z,17.80
2019-06-20T03:52:48.885Z,17.80
2019-06-20T03:55:23.305Z,17.75
2019-06-20T03:57:55.110Z,17.84
2019-06-20T04:00:26.947Z,17.76
2019-06-20T04:02:58.766Z,17.73
2019-06-20T04:05:30.424Z,17.90
2019-06-20T04:08:02.253Z,17.84
2019-06-20T04:10:37.001Z,17.86
2019-06-20T04:13:08.525Z,17.77
2019-06-20T04:15:40.396Z,17.80
2019-06-20T04:18:12.140Z,17.98
2019-06-20T04:20:43.646Z,17.81
2019-06-20T04:23:15.246Z,17.69
2019-06-20T04:25:47.065Z,17.84
2019-06-20T04:28:18.741Z,17.76
2019-06-20T04:30:50.523Z,17.81
2019-06-20T04:33:22.235Z,17.81
2019-06-20T04:35:53.966Z,17.86
2019-06-20T04:38:25.518Z,17.86
2019-06-20T04:40:57.149Z,17.82
2019-06-20T04:43:28.728Z,17.75
2019-06-20T04:46:25.721Z,17.83
2019-06-20T04:48:57.255Z,17.86
2019-06-20T04:51:28.844Z,17.91
2019-06-20T04:54:00.518Z,17.82
2019-06-20T04:59:16.317Z,18.04
2019-06-20T05:01:47.920Z,17.97
2019-06-20T05:04:19.710Z,17.89
2019-06-20T05:06:55.295Z,17.89
2019-06-20T05:09:27.926Z,17.90
2019-06-20T05:11:59.559Z,17.90
2019-06-20T05:14:32.768Z,17.98
2019-06-20T05:17:07.139Z,17.99
2019-06-20T05:19:37.749Z,17.96
2019-06-20T05:22:12.652Z,18.03
2019-06-20T05:24:44.619Z,17.98
2019-06-20T05:27:17.877Z,18.12
2019-06-20T05:29:53.168Z,18.05
2019-06-20T05:32:27.539Z,18.03
2019-06-20T05:35:02.830Z,18.08
2019-06-20T05:39:06.217Z,18.30
2019-06-20T05:41:42.473Z,18.36
2019-06-20T05:44:15.855Z,18.32
2019-06-20T05:46:48.654Z,18.22
2019-06-20T05:49:20.298Z,18.62
2019-06-20T05:51:52.952Z,18.93
2019-06-20T05:54:24.491Z,19.17
2019-06-20T05:56:56.172Z,19.20
2019-06-20T05:59:28.961Z,19.33
2019-06-20T06:02:00.648Z,19.56
2019-06-20T06:04:33.694Z,19.83
2019-06-20T06:07:05.247Z,19.78
2019-06-20T06:09:37.523Z,19.44
2019-06-20T06:12:09.794Z,19.45
2019-06-20T06:14:43.836Z,19.43
2019-06-20T06:17:19.805Z,19.66
2019-06-20T06:19:52.689Z,19.69
2019-06-20T06:22:26.418Z,19.44
2019-06-20T06:25:06.543Z,19.69
2019-06-20T06:27:38.503Z,19.60
2019-06-20T06:30:12.163Z,19.46
2019-06-20T06:32:44.084Z,19.73
2019-06-20T06:35:16.208Z,19.59
2019-06-20T06:37:48.098Z,19.53
2019-06-20T06:40:21.955Z,19.62
2019-06-20T06:42:53.619Z,19.50
2019-06-20T06:45:30.356Z,19.55
2019-06-20T06:48:02.158Z,19.54
2019-06-20T06:50:35.088Z,19.40
2019-06-20T06:53:07.027Z,19.41
2019-06-20T06:55:38.693Z,19.43
2019-06-20T06:58:10.295Z,19.57
2019-06-20T07:00:41.857Z,19.56
2019-06-20T07:03:13.836Z,19.74
2019-06-20T07:05:46.272Z,19.71
2019-06-20T07:08:17.889Z,19.78
2019-06-20T07:10:49.773Z,19.56
2019-06-20T07:13:22.046Z,19.70
2019-06-20T07:16:00.917Z,19.74
2019-06-20T07:18:32.598Z,19.77
2019-06-20T07:21:07.195Z,19.69
2019-06-20T07:23:39.926Z,19.85
2019-06-20T07:26:12.643Z,19.93
2019-06-20T07:28:44.337Z,20.04
2019-06-20T07:31:15.833Z,20.04
2019-06-20T07:33:47.700Z,20.04
2019-06-20T07:36:19.397Z,19.84
2019-06-20T07:38:54.257Z,19.82
2019-06-20T07:41:26.487Z,19.79
2019-06-20T07:43:58.158Z,19.67
2019-06-20T07:46:29.942Z,19.71
2019-06-20T07:49:01.542Z,19.87
2019-06-20T07:51:33.436Z,20.05
2019-06-20T07:54:05.274Z,20.04
2019-06-20T07:57:43.399Z,20.19
2019-06-20T08:00:17.352Z,20.44
2019-06-20T08:02:48.962Z,20.57
2019-06-20T08:05:21.025Z,20.41
2019-06-20T08:07:54.581Z,20.35
2019-06-20T08:10:28.480Z,20.34
2019-06-20T08:12:59.985Z,20.48
2019-06-20T08:15:33.664Z,20.58
2019-06-20T08:18:05.681Z,20.79
2019-06-20T08:20:37.403Z,20.86
2019-06-20T08:23:09.097Z,20.92
2019-06-20T08:25:40.633Z,20.87
2019-06-20T08:28:12.317Z,20.70
2019-06-20T08:30:45.738Z,20.64
2019-06-20T08:33:17.388Z,20.72
2019-06-20T08:35:48.968Z,20.32
2019-06-20T08:38:20.692Z,20.13
2019-06-20T08:40:52.611Z,20.11
2019-06-20T08:43:24.276Z,20.31
2019-06-20T08:47:02.339Z,20.26
2019-06-20T08:49:34.017Z,20.31
2019-06-20T08:52:05.786Z,20.10
2019-06-20T08:54:37.394Z,19.92
2019-06-20T08:57:08.938Z,20.17
2019-06-20T08:59:42.940Z,20.15
2019-06-20T09:02:16.153Z,20.28
2019-06-20T09:04:49.777Z,20.18
2019-06-20T09:07:22.066Z,20.13
2019-06-20T09:09:54.211Z,20.09
2019-06-20T09:12:26.401Z,19.80
2019-06-20T09:14:59.204Z,19.57
2019-06-20T09:17:31.419Z,19.50
2019-06-20T09:20:03.811Z,19.50
2019-06-20T09:23:38.631Z,19.45
2019-06-20T09:26:10.513Z,19.62
2019-06-20T09:28:42.457Z,20.17
2019-06-20T09:31:14.308Z,20.27
2019-06-20T09:33:46.247Z,20.39
2019-06-20T09:36:19.336Z,20.36
2019-06-20T09:38:52.464Z,20.11
2019-06-20T09:41:24.744Z,20.11
2019-06-20T09:43:56.487Z,20.18
2019-06-20T09:46:28.441Z,20.33
2019-06-20T09:49:00.204Z,20.46
2019-06-20T09:51:32.134Z,20.50
2019-06-20T09:54:03.935Z,20.60
2019-06-20T09:56:35.825Z,20.85
2019-06-20T09:59:07.728Z,20.79
2019-06-20T10:01:39.494Z,21.02
2019-06-20T10:04:12.278Z,21.01
2019-06-20T10:06:44.341Z,20.46
2019-06-20T10:09:16.642Z,20.52
2019-06-20T10:14:12.725Z,20.28
2019-06-20T10:16:50.320Z,20.35
2019-06-20T10:19:18.953Z,20.09
2019-06-20T10:21:51.954Z,20.32
2019-06-20T10:24:24.039Z,20.26
2019-06-20T10:26:58.025Z,20.35
2019-06-20T10:29:29.990Z,20.48
2019-06-20T10:32:01.624Z,20.58
2019-06-20T10:34:33.365Z,20.57
2019-06-20T10:37:05.279Z,20.41
2019-06-20T10:39:36.806Z,20.49
2019-06-20T10:42:08.244Z,20.17
2019-06-20T10:44:39.865Z,20.39
2019-06-20T10:47:11.348Z,20.37
2019-06-20T10:49:44.639Z,20.18
2019-06-20T10:52:17.619Z,20.22
2019-06-20T10:54:49.338Z,19.85
2019-06-20T10:57:20.921Z,19.91
2019-06-20T10:59:52.470Z,19.85
2019-06-20T11:02:24.108Z,19.57
2019-06-20T11:04:55.667Z,19.53
2019-06-20T11:07:31.695Z,19.73
2019-06-20T11:10:03.837Z,19.72
2019-06-20T11:12:45.809Z,19.81
2019-06-20T11:15:21.166Z,19.96
2019-06-20T11:17:56.121Z,20.01
2019-06-20T11:20:27.095Z,19.75
2019-06-20T11:22:58.750Z,19.77
2019-06-20T11:25:31.844Z,19.78
2019-06-20T11:28:03.447Z,19.76
2019-06-20T11:30:48.274Z,19.58
2019-06-20T11:33:09.064Z,19.69
2019-06-20T11:37:56.314Z,20.01
2019-06-20T11:40:29.007Z,20.11
2019-06-20T11:43:00.701Z,20.32
2019-06-20T11:45:35.418Z,20.48
2019-06-20T11:48:06.116Z,20.56
2019-06-20T11:50:37.902Z,20.54
2019-06-20T11:53:12.201Z,20.28
2019-06-20T11:55:44.095Z,20.32
2019-06-20T11:58:15.779Z,20.34
2019-06-20T12:01:02.695Z,20.54
2019-06-20T12:03:20.827Z,20.88
2019-06-20T12:05:52.809Z,20.81
2019-06-20T12:08:24.899Z,20.79
2019-06-20T12:10:56.846Z,20.85
2019-06-20T12:13:28.462Z,20.73
2019-06-20T12:16:00.106Z,20.62
2019-06-20T12:18:31.743Z,20.74
2019-06-20T12:21:03.291Z,20.77
2019-06-20T12:23:34.891Z,20.79
2019-06-20T12:26:06.588Z,20.84
2019-06-20T12:28:39.627Z,20.82
2019-06-20T12:31:19.516Z,20.86
2019-06-20T12:33:47.156Z,21.09
2019-06-20T12:36:19.439Z,21.01
2019-06-20T12:38:51.673Z,20.90
2019-06-20T12:41:24.190Z,21.12
2019-06-20T12:46:10.793Z,21.11
2019-06-20T12:48:42.815Z,21.07
2019-06-20T12:51:16.179Z,21.12
2019-06-20T12:53:48.399Z,21.27
2019-06-20T12:56:20.505Z,21.22
2019-06-20T12:58:52.040Z,20.90
2019-06-20T13:01:35.027Z,20.85
2019-06-20T13:03:57.677Z,21.02
2019-06-20T13:06:29.668Z,21.07
2019-06-20T13:09:01.244Z,21.11
2019-06-20T13:11:34.330Z,21.10
2019-06-20T13:14:06.142Z,21.03
2019-06-20T13:16:38.998Z,20.91
2019-06-20T13:19:11.318Z,20.82
2019-06-20T13:23:45.542Z,20.77
2019-06-20T13:26:18.841Z,20.63
2019-06-20T13:29:03.341Z,20.70
2019-06-20T13:31:25.052Z,21.05
2019-06-20T13:33:56.990Z,20.72
2019-06-20T13:36:42.836Z,21.00
2019-06-20T13:39:15.073Z,21.16
2019-06-20T13:41:47.830Z,21.24
2019-06-20T13:44:21.897Z,21.43
2019-06-20T13:46:53.909Z,21.30
2019-06-20T13:49:25.672Z,21.19
2019-06-20T13:51:57.150Z,21.07
2019-06-20T13:54:30.471Z,21.18
2019-06-20T13:57:02.106Z,20.88
2019-06-20T13:59:37.165Z,20.97
2019-06-20T14:02:11.788Z,21.43
2019-06-20T14:04:44.496Z,21.69
2019-06-20T14:07:17.150Z,21.76
2019-06-20T14:09:49.187Z,21.69
2019-06-20T14:12:20.806Z,21.58
2019-06-20T14:14:55.263Z,21.65
2019-06-20T14:17:26.954Z,21.53
2019-06-20T14:19:58.514Z,21.58
2019-06-20T14:22:30.508Z,21.45
2019-06-20T14:25:02.107Z,21.41
2019-06-20T14:27:35.108Z,21.68
2019-06-20T14:30:07.932Z,21.77
2019-06-20T14:32:41.493Z,21.94
2019-06-20T14:35:14.869Z,21.92
2019-06-20T14:37:49.542Z,21.95
2019-06-20T14:40:22.400Z,21.77
2019-06-20T14:42:54.775Z,21.92
2019-06-20T14:45:26.923Z,21.90
2019-06-20T14:47:58.430Z,21.90
2019-06-20T14:50:30.334Z,21.85
2019-06-20T14:53:01.914Z,22.02
2019-06-20T14:55:34.504Z,21.97
2019-06-20T14:58:06.792Z,21.68
2019-06-20T15:00:38.619Z,22.03
2019-06-20T15:03:10.254Z,22.14
2019-06-20T15:05:48.251Z,22.02
2019-06-20T15:08:28.244Z,21.64
2019-06-20T15:11:04.042Z,21.55
2019-06-20T15:13:35.618Z,21.54
2019-06-20T15:16:08.309Z,21.67
2019-06-20T15:18:40.357Z,21.81
2019-06-20T15:21:12.317Z,21.99
2019-06-20T15:23:47.217Z,21.53
2019-06-20T15:26:18.287Z,21.69
2019-06-20T15:28:52.977Z,21.75
2019-06-20T15:31:24.443Z,21.93
2019-06-20T15:33:57.204Z,21.65
2019-06-20T15:36:30.242Z,21.65
2019-06-20T15:39:05.988Z,21.70
2019-06-20T15:41:37.919Z,21.93
2019-06-20T15:44:10.740Z,22.21
2019-06-20T15:46:42.428Z,21.79
2019-06-20T15:49:16.330Z,21.77
2019-06-20T15:51:47.479Z,21.83
2019-06-20T15:54:24.426Z,21.72
2019-06-20T15:56:55.173Z,21.85
2019-06-20T15:59:26.943Z,22.02
2019-06-20T16:02:07.389Z,22.12
2019-06-20T16:04:40.452Z,21.62
2019-06-20T16:07:13.380Z,21.37
2019-06-20T16:10:00.378Z,21.32
2019-06-20T16:12:32.050Z,21.18
2019-06-20T16:15:04.706Z,21.07
2019-06-20T16:17:38.487Z,21.23
2019-06-20T16:20:12.779Z,21.26
2019-06-20T16:22:45.242Z,21.45
2019-06-20T16:25:22.736Z,21.63
2019-06-20T16:27:56.441Z,21.30
2019-06-20T16:30:33.525Z,21.23
2019-06-20T16:33:04.639Z,21.20
2019-06-20T16:35:36.438Z,21.28
2019-06-20T16:38:08.456Z,21.32
2019-06-20T16:40:48.607Z,21.42
2019-06-20T16:43:21.020Z,21.39
2019-06-20T16:45:52.737Z,21.49
2019-06-20T16:48:24.706Z,21.43
2019-06-20T16:50:58.564Z,21.31
2019-06-20T16:53:30.659Z,21.38
2019-06-20T16:56:04.766Z,21.34
2019-06-20T16:58:36.523Z,21.13
2019-06-20T17:01:08.209Z,21.07
2019-06-20T17:03:42.147Z,21.11
2019-06-20T17:06:14.087Z,21.23
2019-06-20T17:08:48.471Z,21.19
2019-06-20T17:11:20.247Z,21.17
2019-06-20T17:13:51.842Z,21.05
2019-06-20T17:16:23.774Z,21.07
2019-06-20T17:18:55.518Z,20.84
2019-06-20T17:21:33.138Z,20.93
2019-06-20T17:24:06.294Z,21.09
2019-06-20T17:26:37.958Z,20.99
2019-06-20T17:29:09.901Z,20.99
2019-06-20T17:31:41.572Z,21.04
2019-06-20T17:34:13.945Z,20.98
2019-06-20T17:36:45.974Z,21.00
2019-06-20T17:39:19.942Z,20.43
2019-06-20T17:41:55.408Z,20.31
2019-06-20T17:44:28.830Z,20.42
2019-06-20T17:47:01.503Z,20.64
2019-06-20T17:49:33.513Z,20.66
2019-06-20T17:52:05.623Z,20.76
2019-06-20T17:54:46.346Z,20.72
2019-06-20T17:57:23.438Z,20.69
2019-06-20T17:59:55.558Z,20.59
2019-06-20T18:02:29.170Z,20.42
2019-06-20T18:05:04.031Z,20.40
2019-06-20T18:07:39.084Z,20.46
2019-06-20T18:10:11.361Z,20.51
2019-06-20T18:12:43.116Z,20.37
2019-06-20T18:15:19.267Z,20.41
2019-06-20T18:17:52.973Z,20.24
2019-06-20T18:20:24.982Z,20.23
2019-06-20T18:22:56.713Z,20.26
2019-06-20T18:25:33.318Z,20.14
2019-06-20T18:28:05.698Z,20.02
2019-06-20T18:30:43.012Z,20.04
2019-06-20T18:33:15.299Z,20.15
2019-06-20T18:35:47.490Z,19.94
2019-06-20T18:38:19.613Z,19.91
2019-06-20T18:40:51.236Z,19.82
2019-06-20T18:43:22.905Z,19.73
2019-06-20T18:45:58.830Z,19.82
2019-06-20T18:48:31.359Z,19.85
2019-06-20T18:51:03.948Z,19.66
2019-06-20T18:53:37.103Z,19.67
2019-06-20T18:56:13.392Z,19.52
2019-06-20T18:58:45.805Z,19.64
2019-06-20T19:01:17.510Z,19.58
2019-06-20T19:03:50.933Z,19.54
2019-06-20T19:06:35.603Z,19.43
2019-06-20T19:08:58.167Z,19.33
2019-06-20T19:11:30.403Z,19.36
2019-06-20T19:14:01.987Z,19.36
2019-06-20T19:16:34.357Z,19.47
2019-06-20T19:19:08.770Z,19.18
2019-06-20T19:21:45.035Z,19.12
2019-06-20T19:24:17.264Z,19.12
2019-06-20T19:26:58.795Z,19.20
2019-06-20T19:29:32.394Z,19.13
2019-06-20T19:32:04.748Z,19.13
2019-06-20T19:34:36.227Z,19.30
2019-06-20T19:37:08.525Z,19.41
2019-06-20T19:39:44.034Z,19.34
2019-06-20T19:42:20.488Z,19.30
2019-06-20T19:45:03.368Z,19.24
2019-06-20T19:47:35.184Z,19.11
2019-06-20T19:50:08.037Z,19.11
2019-06-20T19:52:45.910Z,19.03
2019-06-20T19:55:21.215Z,19.18
2019-06-20T19:57:53.135Z,19.14
2019-06-20T20:00:26.021Z,19.19
2019-06-20T20:03:00.402Z,18.92
2019-06-20T20:05:35.240Z,18.75
2019-06-20T20:08:07.692Z,18.79
2019-06-20T20:10:50.322Z,18.93
2019-06-20T20:13:22.691Z,18.91
2019-06-20T20:15:54.433Z,18.71
2019-06-20T20:18:26.057Z,18.64
2019-06-20T20:20:58.765Z,18.53
2019-06-20T20:23:30.619Z,18.50
2019-06-20T20:26:08.824Z,18.46
2019-06-20T20:28:42.620Z,18.42
2019-06-20T20:31:14.744Z,18.33
2019-06-20T20:33:47.040Z,18.35
2019-06-20T20:36:24.748Z,18.52
2019-06-20T20:38:52.051Z,18.65
2019-06-20T20:41:30.653Z,18.51
2019-06-20T20:44:02.553Z,18.46
2019-06-20T20:46:56.284Z,18.28
2019-06-20T20:49:30.690Z,18.23
2019-06-20T20:52:02.334Z,18.39
2019-06-20T20:54:38.658Z,18.26
2019-06-20T20:57:12.718Z,18.33
2019-06-20T20:59:45.315Z,18.18
2019-06-20T21:02:17.513Z,18.29
2019-06-20T21:04:49.640Z,18.34
2019-06-20T21:07:22.034Z,18.25
2019-06-20T21:09:56.346Z,18.18
2019-06-20T21:12:31.212Z,18.19
2019-06-20T21:15:06.934Z,18.15
2019-06-20T21:17:39.179Z,18.20
2019-06-20T21:20:11.298Z,18.34
2019-06-20T21:22:42.896Z,18.31
2019-06-20T21:25:14.554Z,18.26
2019-06-20T21:27:48.514Z,18.37
2019-06-20T21:30:21.913Z,18.30
2019-06-20T21:32:53.488Z,18.39
2019-06-20T21:35:25.194Z,18.43
2019-06-20T21:37:56.856Z,18.36
2019-06-20T21:40:28.540Z,18.33
2019-06-20T21:43:00.099Z,18.37
2019-06-20T21:45:32.679Z,18.26
2019-06-20T21:48:05.476Z,18.39
2019-06-20T21:50:38.095Z,18.13
2019-06-20T21:53:09.750Z,18.14
2019-06-20T21:55:41.374Z,18.09
2019-06-20T21:58:12.893Z,18.26
2019-06-20T22:00:47.553Z,18.15
2019-06-20T22:03:21.024Z,18.17
2019-06-20T22:05:52.579Z,18.05
2019-06-20T22:08:24.787Z,17.98
2019-06-20T22:10:56.406Z,17.89
2019-06-20T22:13:27.929Z,17.88
2019-06-20T22:15:59.501Z,17.86
2019-06-20T22:18:32.209Z,17.95
2019-06-20T22:21:03.883Z,18.04
2019-06-20T22:23:35.676Z,17.95
2019-06-20T22:26:07.230Z,17.96
2019-06-20T22:28:38.885Z,18.00
2019-06-20T22:31:10.504Z,17.89
2019-06-20T22:33:42.193Z,17.93
2019-06-20T22:36:13.866Z,17.80
2019-06-20T22:38:45.424Z,17.73
2019-06-20T22:41:17.036Z,17.88
2019-06-20T22:43:49.099Z,17.91
2019-06-20T22:47:51.509Z,17.80
2019-06-20T22:50:23.098Z,17.65
2019-06-20T22:52:55.042Z,17.63
2019-06-20T22:55:26.576Z,17.68
2019-06-20T22:57:58.492Z,17.54
2019-06-20T23:00:30.143Z,17.50
2019-06-20T23:03:01.760Z,17.34
2019-06-20T23:05:33.717Z,17.26
2019-06-20T23:08:05.821Z,17.30
2019-06-20T23:10:37.386Z,17.32
2019-06-20T23:13:08.923Z,17.32
2019-06-20T23:15:40.728Z,17.35
2019-06-20T23:18:12.241Z,17.41
2019-06-20T23:21:00.665Z,17.12
2019-06-20T23:23:17.132Z,16.96
2019-06-20T23:25:50.899Z,17.08
2019-06-20T23:28:22.541Z,17.13
2019-06-20T23:30:54.018Z,17.13
2019-06-20T23:33:25.548Z,17.11
2019-06-20T23:36:00.018Z,16.97
2019-06-20T23:38:33.139Z,16.97
2019-06-20T23:41:04.682Z,16.87
2019-06-20T23:43:37.177Z,16.93
2019-06-20T23:46:08.757Z,16.92
2019-06-20T23:48:40.876Z,16.89
2019-06-20T23:51:25.005Z,16.93
2019-06-20T23:53:45.747Z,16.92
2019-06-20T23:56:17.372Z,16.85
2019-06-20T23:58:49.269Z,16.64
